createdAt,value
2022-10-11T00:01:41.685Z,99651.87
2022-10-11T00:04:15.913Z,99648.37
2022-10-11T00:06:49.203Z,99649.18
2022-10-11T00:09:22.801Z,99649.67
2022-10-11T00:11:57.964Z,99644.09
2022-10-11T00:14:31.031Z,99644.59
2022-10-11T00:17:04.371Z,99654.62
2022-10-11T00:19:37.271Z,99654.38
2022-10-11T00:22:10.533Z,99659.59
2022-10-11T00:24:43.551Z,99660.69
2022-10-11T00:27:16.341Z,99667.15
2022-10-11T00:29:49.255Z,99665.84
2022-10-11T00:32:22.161Z,99662.81
2022-10-11T00:34:56.426Z,99666.16
2022-10-11T00:37:29.213Z,99667.39
2022-10-11T00:40:02.706Z,99663.37
2022-10-11T00:42:35.843Z,99671.59
2022-10-11T00:45:29.866Z,99671.13
2022-10-11T00:48:10.214Z,99686.45
2022-10-11T00:50:43.565Z,99676.01
2022-10-11T00:53:16.457Z,99679.85
2022-10-11T00:55:53.283Z,99679.92
2022-10-11T00:58:26.376Z,99682.54
2022-10-11T01:00:59.550Z,99680.27
2022-10-11T01:03:33.606Z,99686.88
2022-10-11T01:06:07.607Z,99684.66
2022-10-11T01:08:41.617Z,99684.66
2022-10-11T01:11:20.164Z,99692.56
2022-10-11T01:13:58.258Z,99700.62
2022-10-11T01:17:11.888Z,99697.13
2022-10-11T01:19:55.522Z,99696.77
2022-10-11T01:23:06.531Z,99703.66
2022-10-11T01:26:17.764Z,99708.88
2022-10-11T01:28:56.992Z,99702.63
2022-10-11T01:31:56.213Z,99701.25
2022-10-11T01:34:48.930Z,99703.86
2022-10-11T01:37:45.390Z,99708.59
2022-10-11T01:40:28.541Z,99718.08
2022-10-11T01:43:03.169Z,99713.52
2022-10-11T01:45:37.463Z,99727.46
2022-10-11T01:48:15.390Z,99732.30
2022-10-11T01:50:57.317Z,99726.16
2022-10-11T01:54:22.193Z,99737.91
2022-10-11T01:57:22.744Z,99734.34
2022-10-11T02:00:15.837Z,99733.38
2022-10-11T02:02:59.718Z,99729.46
2022-10-11T02:05:40.661Z,99726.78
2022-10-11T02:08:30.158Z,99747.67
2022-10-11T02:11:13.658Z,99734.46
2022-10-11T02:13:57.583Z,99738.30
2022-10-11T02:16:47.253Z,99741.19
2022-10-11T02:19:23.404Z,99743.30
2022-10-11T02:22:01.177Z,99753.25
2022-10-11T02:24:37.748Z,99753.59
2022-10-11T02:27:11.819Z,99753.52
2022-10-11T02:29:46.678Z,99754.83
2022-10-11T02:32:21.327Z,99755.41
2022-10-11T02:34:57.715Z,99767.88
2022-10-11T02:37:51.651Z,99763.39
2022-10-11T02:40:40.403Z,99761.94
2022-10-11T02:43:33.670Z,99769.69
2022-10-11T02:46:08.362Z,99770.03
2022-10-11T02:48:42.387Z,99767.00
2022-10-11T02:51:16.362Z,99770.45
2022-10-11T02:53:48.510Z,99775.26
2022-10-11T02:56:21.278Z,99773.88
2022-10-11T02:58:54.228Z,99773.88
2022-10-11T03:01:27.333Z,99775.59
2022-10-11T03:04:00.524Z,99770.64
2022-10-11T03:06:33.788Z,99772.76
2022-10-11T03:09:07.234Z,99769.19
2022-10-11T03:11:40.631Z,99787.77
2022-10-11T03:14:15.247Z,99785.08
2022-10-11T03:16:48.751Z,99783.23
2022-10-11T03:19:22.001Z,99780.05
2022-10-11T03:21:55.166Z,99784.84
2022-10-11T03:24:28.602Z,99785.19
2022-10-11T03:27:02.146Z,99781.11
2022-10-11T03:29:36.249Z,99798.50
2022-10-11T03:32:09.788Z,99790.98
2022-10-11T03:34:44.100Z,99789.75
2022-10-11T03:37:17.199Z,99792.36
2022-10-11T03:39:51.843Z,99800.53
2022-10-11T03:42:24.612Z,99795.81
2022-10-11T03:44:57.653Z,99798.50
2022-10-11T03:47:30.607Z,99806.80
2022-10-11T03:50:03.407Z,99801.03
2022-10-11T03:52:37.792Z,99804.11
2022-10-11T03:55:11.189Z,99808.94
2022-10-11T03:57:44.389Z,99814.55
2022-10-11T04:00:17.576Z,99813.16
2022-10-11T04:02:50.326Z,99819.22
2022-10-11T04:05:23.910Z,99823.55
2022-10-11T04:07:56.826Z,99832.61
2022-10-11T04:10:31.881Z,99815.23
2022-10-11T04:13:05.377Z,99830.80
2022-10-11T04:15:40.033Z,99824.70
2022-10-11T04:18:13.404Z,99816.79
2022-10-11T04:20:46.287Z,99835.78
2022-10-11T04:23:19.266Z,99836.75
2022-10-11T04:25:52.367Z,99827.61
2022-10-11T04:28:25.329Z,99837.17
2022-10-11T04:30:58.876Z,99834.55
2022-10-11T04:33:31.888Z,99855.44
2022-10-11T04:36:07.234Z,99841.00
2022-10-11T04:38:40.656Z,99839.86
2022-10-11T04:41:17.512Z,99844.66
2022-10-11T04:43:50.526Z,99865.23
2022-10-11T04:46:23.332Z,99844.66
2022-10-11T04:48:57.138Z,99862.45
2022-10-11T04:51:30.674Z,99854.13
2022-10-11T04:54:03.475Z,99865.53
2022-10-11T04:56:36.853Z,99872.06
2022-10-11T04:59:09.603Z,99858.20
2022-10-11T05:01:43.087Z,99868.89
2022-10-11T05:04:16.300Z,99878.91
2022-10-11T05:06:49.248Z,99870.92
2022-10-11T05:09:23.325Z,99869.61
2022-10-11T05:11:56.847Z,99879.72
2022-10-11T05:14:29.614Z,99881.94
2022-10-11T05:17:04.859Z,99896.68
2022-10-11T05:19:37.797Z,99891.88
2022-10-11T05:22:11.440Z,99890.11
2022-10-11T05:24:44.176Z,99891.45
2022-10-11T05:27:17.398Z,99905.42
2022-10-11T05:29:50.708Z,99900.13
2022-10-11T05:32:27.709Z,99903.70
2022-10-11T05:34:58.482Z,99902.73
2022-10-11T05:37:35.789Z,99905.10
2022-10-11T05:40:11.213Z,99911.13
2022-10-11T05:42:44.333Z,99912.13
2022-10-11T05:45:17.238Z,99912.52
2022-10-11T05:47:50.177Z,99906.41
2022-10-11T05:50:24.941Z,99919.20
2022-10-11T05:52:58.405Z,99919.78
2022-10-11T05:55:31.407Z,99926.39
2022-10-11T05:58:04.497Z,99919.36
2022-10-11T06:00:40.487Z,99923.28
2022-10-11T06:03:14.771Z,99924.16
2022-10-11T06:05:49.709Z,99924.25
2022-10-11T06:08:23.039Z,99925.63
2022-10-11T06:10:55.928Z,99933.16
2022-10-11T06:13:31.042Z,99930.63
2022-10-11T06:16:07.131Z,99934.55
2022-10-11T06:18:40.932Z,99938.55
2022-10-11T06:21:16.034Z,99945.23
2022-10-11T06:23:58.379Z,99947.59
2022-10-11T06:26:29.084Z,99949.31
2022-10-11T06:29:02.089Z,99954.28
2022-10-11T06:31:35.436Z,99956.05
2022-10-11T06:34:08.302Z,99953.39
2022-10-11T06:36:41.294Z,99953.39
2022-10-11T06:39:14.295Z,99947.08
2022-10-11T06:41:47.573Z,99951.58
2022-10-11T06:44:20.620Z,99951.73
2022-10-11T06:46:53.876Z,99960.08
2022-10-11T06:49:27.057Z,99957.69
2022-10-11T06:51:59.875Z,99964.38
2022-10-11T06:54:33.292Z,99957.13
2022-10-11T06:57:06.082Z,99953.45
2022-10-11T06:59:39.676Z,99954.25
2022-10-11T07:02:13.108Z,99968.07
2022-10-11T07:04:45.800Z,99962.77
2022-10-11T07:07:18.926Z,99970.10
2022-10-11T07:09:52.360Z,99963.83
2022-10-11T07:12:27.227Z,99966.44
2022-10-11T07:15:00.001Z,99973.44
2022-10-11T07:17:33.520Z,99976.63
2022-10-11T07:20:08.507Z,99970.19
2022-10-11T07:22:41.590Z,99982.35
2022-10-11T07:25:14.627Z,99981.05
2022-10-11T07:27:47.489Z,99973.30
2022-10-11T07:30:22.052Z,99978.91
2022-10-11T07:32:55.589Z,99984.63
2022-10-11T07:35:28.758Z,99983.23
2022-10-11T07:38:01.964Z,99982.73
2022-10-11T07:40:45.456Z,99985.19
2022-10-11T07:43:18.684Z,99982.75
2022-10-11T07:45:57.306Z,99991.63
2022-10-11T07:48:30.615Z,99992.80
2022-10-11T07:51:16.335Z,99993.34
2022-10-11T07:53:56.001Z,99998.48
2022-10-11T07:56:30.472Z,99991.41
2022-10-11T07:59:04.653Z,99991.41
2022-10-11T08:01:37.672Z,100013.69
2022-10-11T08:04:11.106Z,100005.61
2022-10-11T08:06:44.162Z,100012.86
2022-10-11T08:09:17.327Z,100012.86
2022-10-11T08:11:50.267Z,100011.88
2022-10-11T08:14:23.414Z,100012.77
2022-10-11T08:16:56.876Z,100009.35
2022-10-11T08:19:30.112Z,100018.91
2022-10-11T08:22:04.506Z,100016.30
2022-10-11T08:24:38.544Z,100018.99
2022-10-11T08:27:11.761Z,100021.02
2022-10-11T08:29:45.128Z,100022.75
2022-10-11T08:32:18.518Z,100027.05
2022-10-11T08:34:53.380Z,100035.22
2022-10-11T08:37:26.553Z,100036.61
2022-10-11T08:39:59.595Z,100038.72
2022-10-11T08:42:49.499Z,100031.22
2022-10-11T08:45:36.246Z,100059.60
2022-10-11T08:48:16.981Z,100036.19
2022-10-11T08:50:52.455Z,100049.91
2022-10-11T08:54:07.561Z,100049.27
2022-10-11T08:56:40.464Z,100057.66
2022-10-11T08:59:26.723Z,100051.55
2022-10-11T09:02:09.995Z,100052.52
2022-10-11T09:04:43.124Z,100079.30
2022-10-11T09:07:36.034Z,100054.66
2022-10-11T09:10:49.233Z,100062.83
2022-10-11T09:13:44.095Z,100066.98
2022-10-11T09:16:22.275Z,100065.00
2022-10-11T09:19:45.282Z,100065.00
2022-10-11T09:22:45.741Z,100065.00
2022-10-11T09:25:42.203Z,100065.51
2022-10-11T09:28:36.911Z,100067.36
2022-10-11T09:31:12.792Z,100067.05
2022-10-11T09:33:52.415Z,100064.52
2022-10-11T09:36:42.517Z,100075.53
2022-10-11T09:39:33.586Z,100065.16
2022-10-11T09:42:10.034Z,100069.50
2022-10-11T09:44:51.552Z,100077.25
2022-10-11T09:47:33.294Z,100066.00
2022-10-11T09:50:10.718Z,100075.86
2022-10-11T09:52:56.378Z,100074.48
2022-10-11T09:55:52.720Z,100063.22
2022-10-11T09:58:32.760Z,100071.30
2022-10-11T10:01:15.136Z,100070.88
2022-10-11T10:03:48.332Z,100088.31
2022-10-11T10:06:28.970Z,100079.16
2022-10-11T10:09:30.660Z,100088.69
2022-10-11T10:12:08.226Z,100087.61
2022-10-11T10:14:41.399Z,100088.11
2022-10-11T10:17:19.215Z,100093.12
2022-10-11T10:19:55.392Z,100092.55
2022-10-11T10:22:31.968Z,100098.33
2022-10-11T10:25:08.331Z,100090.10
2022-10-11T10:27:42.325Z,100100.05
2022-10-11T10:30:19.614Z,100090.83
2022-10-11T10:33:05.216Z,100086.41
2022-10-11T10:36:04.193Z,100105.46
2022-10-11T10:38:51.998Z,100091.23
2022-10-11T10:41:22.926Z,100094.16
2022-10-11T10:43:58.607Z,100107.39
2022-10-11T10:47:04.853Z,100108.03
2022-10-11T10:50:01.036Z,100115.41
2022-10-11T10:52:51.387Z,100104.87
2022-10-11T10:55:48.725Z,100109.84
2022-10-11T10:58:56.661Z,100119.95
2022-10-11T11:01:33.375Z,100116.38
2022-10-11T11:04:17.146Z,100121.69
2022-10-11T11:07:26.123Z,100115.23
2022-10-11T11:10:18.564Z,100121.27
2022-10-11T11:13:14.672Z,100133.27
2022-10-11T11:16:26.636Z,100122.56
2022-10-11T11:19:05.051Z,100132.05
2022-10-11T11:22:07.160Z,100122.98
2022-10-11T11:24:50.834Z,100137.36
2022-10-11T11:27:40.165Z,100125.52
2022-10-11T11:30:23.272Z,100131.71
2022-10-11T11:33:10.211Z,100141.19
2022-10-11T11:35:53.243Z,100136.66
2022-10-11T11:38:48.133Z,100145.47
2022-10-11T11:41:27.704Z,100153.31
2022-10-11T11:44:17.365Z,100166.18
2022-10-11T11:47:09.073Z,100159.90
2022-10-11T11:50:00.304Z,100163.73
2022-10-11T11:52:39.994Z,100164.45
2022-10-11T11:55:26.154Z,100163.73
2022-10-11T11:58:22.115Z,100164.41
2022-10-11T12:01:18.100Z,100166.30
2022-10-11T12:03:58.608Z,100161.66
2022-10-11T12:06:37.901Z,100176.11
2022-10-11T12:09:24.377Z,100173.58
2022-10-11T12:12:07.120Z,100172.27
2022-10-11T12:14:42.204Z,100173.33
2022-10-11T12:17:24.650Z,100171.05
2022-10-11T12:20:08.107Z,100166.70
2022-10-11T12:23:01.051Z,100174.72
2022-10-11T12:25:40.133Z,100168.98
2022-10-11T12:28:49.821Z,100173.75
2022-10-11T12:31:27.641Z,100172.44
2022-10-11T12:34:11.383Z,100163.03
2022-10-11T12:36:47.755Z,100167.04
2022-10-11T12:39:26.101Z,100168.09
2022-10-11T12:42:22.210Z,100167.84
2022-10-11T12:45:18.177Z,100180.19
2022-10-11T12:48:01.641Z,100177.39
2022-10-11T12:51:03.936Z,100178.05
2022-10-11T12:54:26.812Z,100185.00
2022-10-11T12:57:11.658Z,100176.66
2022-10-11T12:59:45.465Z,100186.06
2022-10-11T13:02:37.621Z,100185.73
2022-10-11T13:05:27.125Z,100192.51
2022-10-11T13:08:04.860Z,100195.63
2022-10-11T13:10:43.654Z,100190.86
2022-10-11T13:13:33.064Z,100190.55
2022-10-11T13:16:14.827Z,100189.41
2022-10-11T13:18:51.768Z,100190.45
2022-10-11T13:21:37.533Z,100198.22
2022-10-11T13:24:20.052Z,100197.56
2022-10-11T13:26:56.771Z,100195.45
2022-10-11T13:29:41.809Z,100204.27
2022-10-11T13:32:25.165Z,100198.64
2022-10-11T13:35:04.585Z,100194.80
2022-10-11T13:37:44.118Z,100200.36
2022-10-11T13:40:20.217Z,100201.87
2022-10-11T13:42:55.061Z,100201.80
2022-10-11T13:45:33.059Z,100202.34
2022-10-11T13:48:06.827Z,100209.05
2022-10-11T13:50:42.515Z,100205.63
2022-10-11T13:53:20.309Z,100206.20
2022-10-11T13:56:05.834Z,100206.20
2022-10-11T13:58:47.941Z,100202.40
2022-10-11T14:01:41.928Z,100209.09
2022-10-11T14:04:16.473Z,100211.06
2022-10-11T14:06:56.935Z,100215.48
2022-10-11T14:09:34.437Z,100219.08
2022-10-11T14:12:32.986Z,100217.03
2022-10-11T14:15:09.023Z,100221.50
2022-10-11T14:17:46.241Z,100228.13
2022-10-11T14:20:30.889Z,100214.66
2022-10-11T14:23:00.460Z,100222.58
2022-10-11T14:25:33.693Z,100220.35
2022-10-11T14:28:08.522Z,100223.39
2022-10-11T14:30:43.600Z,100222.08
2022-10-11T14:33:16.541Z,100227.39
2022-10-11T14:35:49.400Z,100232.21
2022-10-11T14:38:22.643Z,100241.38
2022-10-11T14:40:55.911Z,100241.88
2022-10-11T14:43:29.327Z,100242.84
2022-10-11T14:46:03.249Z,100242.11
2022-10-11T14:48:54.315Z,100245.69
2022-10-11T14:51:14.290Z,100255.82
2022-10-11T14:53:47.702Z,100254.94
2022-10-11T14:56:21.823Z,100254.94
2022-10-11T14:58:55.034Z,100264.18
2022-10-11T15:01:28.045Z,100260.25
2022-10-11T15:04:01.006Z,100261.56
2022-10-11T15:06:38.006Z,100265.06
2022-10-11T15:09:11.092Z,100265.98
2022-10-11T15:11:47.233Z,100268.61
2022-10-11T15:14:24.162Z,100272.84
2022-10-11T15:16:59.922Z,100276.23
2022-10-11T15:19:35.500Z,100277.84
2022-10-11T15:22:13.589Z,100274.67
2022-10-11T15:24:57.706Z,100276.88
2022-10-11T15:27:35.107Z,100284.81
2022-10-11T15:30:22.223Z,100273.76
2022-10-11T15:32:58.028Z,100289.42
2022-10-11T15:35:31.933Z,100288.92
2022-10-11T15:38:07.247Z,100285.41
2022-10-11T15:40:41.940Z,100282.80
2022-10-11T15:43:18.747Z,100287.03
2022-10-11T15:45:50.609Z,100293.41
2022-10-11T15:48:29.501Z,100296.11
2022-10-11T15:51:07.530Z,100289.64
2022-10-11T15:53:41.228Z,100297.11
2022-10-11T15:56:18.988Z,100299.73
2022-10-11T15:58:52.340Z,100294.88
2022-10-11T16:01:25.623Z,100298.73
2022-10-11T16:04:03.025Z,100305.95
2022-10-11T16:06:38.216Z,100309.46
2022-10-11T16:09:14.047Z,100304.39
2022-10-11T16:11:46.799Z,100311.09
2022-10-11T16:14:22.087Z,100308.55
2022-10-11T16:16:56.449Z,100304.78
2022-10-11T16:19:32.465Z,100301.75
2022-10-11T16:22:05.311Z,100309.60
2022-10-11T16:24:39.390Z,100311.33
2022-10-11T16:27:18.684Z,100317.53
2022-10-11T16:29:50.024Z,100307.87
2022-10-11T16:32:23.417Z,100307.95
2022-10-11T16:34:56.533Z,100314.11
2022-10-11T16:37:29.637Z,100316.39
2022-10-11T16:40:03.557Z,100313.84
2022-10-11T16:42:36.588Z,100316.20
2022-10-11T16:45:10.053Z,100322.75
2022-10-11T16:47:44.366Z,100318.66
2022-10-11T16:50:16.527Z,100307.80
2022-10-11T16:52:50.766Z,100314.73
2022-10-11T16:55:24.744Z,100319.89
2022-10-11T16:57:58.379Z,100316.55
2022-10-11T17:00:31.717Z,100318.82
2022-10-11T17:03:05.056Z,100312.27
2022-10-11T17:05:39.094Z,100317.59
2022-10-11T17:08:11.884Z,100313.28
2022-10-11T17:10:46.383Z,100314.97
2022-10-11T17:13:19.372Z,100315.55
2022-10-11T17:15:52.825Z,100315.55
2022-10-11T17:18:26.344Z,100319.06
2022-10-11T17:21:08.740Z,100318.17
2022-10-11T17:23:42.371Z,100323.41
2022-10-11T17:26:26.585Z,100317.28
2022-10-11T17:29:01.159Z,100317.02
2022-10-11T17:31:34.143Z,100323.65
2022-10-11T17:34:08.461Z,100318.59
2022-10-11T17:36:42.413Z,100319.83
2022-10-11T17:39:20.619Z,100321.94
2022-10-11T17:41:54.501Z,100318.82
2022-10-11T17:44:27.465Z,100317.52
2022-10-11T17:47:02.811Z,100317.52
2022-10-11T17:49:37.577Z,100312.36
2022-10-11T17:52:10.573Z,100318.59
2022-10-11T17:54:45.861Z,100321.68
2022-10-11T17:57:20.483Z,100313.83
2022-10-11T17:59:53.972Z,100311.28
2022-10-11T18:02:26.960Z,100315.37
2022-10-11T18:05:00.151Z,100318.48
2022-10-11T18:07:33.436Z,100314.95
2022-10-11T18:10:07.253Z,100318.06
2022-10-11T18:12:41.646Z,100328.88
2022-10-11T18:15:14.714Z,100322.18
2022-10-11T18:17:48.334Z,100320.79
2022-10-11T18:20:21.381Z,100324.30
2022-10-11T18:22:55.107Z,100327.26
2022-10-11T18:25:30.283Z,100324.56
2022-10-11T18:28:04.640Z,100328.48
2022-10-11T18:30:37.959Z,100326.76
2022-10-11T18:33:12.125Z,100329.72
2022-10-11T18:35:47.761Z,100336.84
2022-10-11T18:38:20.665Z,100337.23
2022-10-11T18:40:53.513Z,100337.66
2022-10-11T18:43:26.587Z,100339.77
2022-10-11T18:46:16.161Z,100341.08
2022-10-11T18:48:51.836Z,100340.69
2022-10-11T18:51:31.406Z,100339.38
2022-10-11T18:54:05.112Z,100346.40
2022-10-11T18:56:39.928Z,100338.46
2022-10-11T18:59:12.789Z,100341.08
2022-10-11T19:01:48.420Z,100345.93
2022-10-11T19:04:22.922Z,100350.24
2022-10-11T19:06:55.962Z,100354.17
2022-10-11T19:09:31.150Z,100354.59
2022-10-11T19:12:06.110Z,100354.02
2022-10-11T19:14:39.450Z,100360.90
2022-10-11T19:17:12.737Z,100356.47
2022-10-11T19:19:45.723Z,100356.47
2022-10-11T19:22:18.702Z,100353.47
2022-10-11T19:24:51.743Z,100357.47
2022-10-11T19:27:24.694Z,100355.32
2022-10-11T19:29:57.839Z,100357.86
2022-10-11T19:32:30.781Z,100363.59
2022-10-11T19:35:03.695Z,100361.32
2022-10-11T19:37:36.813Z,100364.75
2022-10-11T19:40:10.948Z,100370.79
2022-10-11T19:42:43.820Z,100363.86
2022-10-11T19:45:17.531Z,100367.36
2022-10-11T19:47:50.573Z,100373.98
2022-10-11T19:50:23.602Z,100369.48
2022-10-11T19:52:56.619Z,100370.32
2022-10-11T19:55:29.913Z,100368.42
2022-10-11T19:58:08.277Z,100370.97
2022-10-11T20:00:40.219Z,100363.53
2022-10-11T20:03:13.581Z,100367.88
2022-10-11T20:05:47.075Z,100364.17
2022-10-11T20:08:20.022Z,100364.85
2022-10-11T20:10:57.058Z,100364.44
2022-10-11T20:13:34.852Z,100371.29
2022-10-11T20:16:15.350Z,100367.95
2022-10-11T20:18:49.415Z,100373.44
2022-10-11T20:21:25.747Z,100375.30
2022-10-11T20:24:04.085Z,100373.66
2022-10-11T20:26:37.110Z,100374.72
2022-10-11T20:29:11.652Z,100369.23
2022-10-11T20:31:44.806Z,100372.43
2022-10-11T20:34:18.178Z,100380.58
2022-10-11T20:36:51.305Z,100382.63
2022-10-11T20:39:24.552Z,100385.97
2022-10-11T20:41:57.457Z,100381.41
2022-10-11T20:44:30.278Z,100378.53
2022-10-11T20:47:04.286Z,100384.98
2022-10-11T20:49:38.132Z,100379.75
2022-10-11T20:52:11.012Z,100387.17
2022-10-11T20:54:44.011Z,100381.53
2022-10-11T20:57:16.919Z,100385.06
2022-10-11T20:59:50.352Z,100380.31
2022-10-11T21:02:23.328Z,100380.81
2022-10-11T21:04:56.207Z,100380.81
2022-10-11T21:07:29.240Z,100385.41
2022-10-11T21:10:02.257Z,100380.27
2022-10-11T21:12:35.848Z,100389.47
2022-10-11T21:15:10.276Z,100386.86
2022-10-11T21:17:43.646Z,100390.78
2022-10-11T21:20:16.934Z,100391.62
2022-10-11T21:22:50.896Z,100388.92
2022-10-11T21:25:24.233Z,100393.17
2022-10-11T21:27:57.778Z,100389.63
2022-10-11T21:30:31.069Z,100395.20
2022-10-11T21:33:23.422Z,100385.37
2022-10-11T21:36:13.703Z,100388.64
2022-10-11T21:39:04.023Z,100390.08
2022-10-11T21:41:53.705Z,100391.71
2022-10-11T21:44:45.792Z,100393.77
2022-10-11T21:47:39.014Z,100397.09
2022-10-11T21:50:29.806Z,100398.41
2022-10-11T21:53:20.999Z,100393.00
2022-10-11T21:56:12.617Z,100399.36
2022-10-11T21:59:00.507Z,100392.14
2022-10-11T22:01:49.196Z,100396.09
2022-10-11T22:04:40.697Z,100400.97
2022-10-11T22:07:33.016Z,100403.40
2022-10-11T22:10:24.735Z,100401.02
2022-10-11T22:13:07.034Z,100401.73
2022-10-11T22:15:41.690Z,100401.50
2022-10-11T22:18:15.112Z,100409.16
2022-10-11T22:20:47.907Z,100409.45
2022-10-11T22:23:21.332Z,100414.20
2022-10-11T22:25:54.252Z,100417.10
2022-10-11T22:28:27.442Z,100418.83
2022-10-11T22:31:00.411Z,100421.67
2022-10-11T22:33:33.501Z,100423.18
2022-10-11T22:36:13.234Z,100421.78
2022-10-11T22:38:46.980Z,100425.05
2022-10-11T22:41:19.748Z,100419.95
2022-10-11T22:43:53.680Z,100430.69
2022-10-11T22:46:26.924Z,100425.70
2022-10-11T22:48:59.857Z,100427.42
2022-10-11T22:51:32.982Z,100425.28
2022-10-11T22:54:06.789Z,100427.71
2022-10-11T22:56:39.547Z,100423.23
2022-10-11T22:59:12.709Z,100426.22
2022-10-11T23:01:45.497Z,100429.25
2022-10-11T23:04:19.580Z,100431.86
2022-10-11T23:06:52.534Z,100433.07
2022-10-11T23:09:27.635Z,100432.50
2022-10-11T23:12:00.144Z,100425.98
2022-10-11T23:14:32.914Z,100434.19
2022-10-11T23:17:06.309Z,100430.41
2022-10-11T23:19:39.724Z,100431.02
2022-10-11T23:22:12.539Z,100429.71
2022-10-11T23:24:45.573Z,100433.86
2022-10-11T23:27:18.978Z,100441.08
2022-10-11T23:29:52.350Z,100439.30
2022-10-11T23:32:25.484Z,100440.83
2022-10-11T23:34:58.508Z,100440.22
2022-10-11T23:37:31.343Z,100442.93
2022-10-11T23:40:05.097Z,100435.01
2022-10-11T23:42:38.206Z,100443.95
2022-10-11T23:45:11.890Z,100446.05
2022-10-11T23:47:44.624Z,100445.38
2022-10-11T23:50:17.756Z,100445.67
2022-10-11T23:52:50.608Z,100445.29
2022-10-11T23:55:23.699Z,100454.42
2022-10-11T23:57:57.341Z,100459.23
